createdAt,value
2023-06-19T00:01:38.736Z,100838.94
2023-06-19T00:04:05.399Z,100836.53
2023-06-19T00:06:31.854Z,100837.75
2023-06-19T00:08:58.366Z,100840.94
2023-06-19T00:11:24.843Z,100851.31
2023-06-19T00:13:51.380Z,100839.72
2023-06-19T00:16:19.061Z,100842.53
2023-06-19T00:18:46.230Z,100843.72
2023-06-19T00:21:12.935Z,100843.31
2023-06-19T00:23:39.660Z,100838.94
2023-06-19T00:26:08.190Z,100834.53
2023-06-19T00:28:39.887Z,100836.56
2023-06-19T00:31:09.718Z,100837.75
2023-06-19T00:33:36.270Z,100839.34
2023-06-19T00:36:02.803Z,100840.16
2023-06-19T00:38:29.486Z,100850.94
2023-06-19T00:40:57.664Z,100848.13
2023-06-19T00:43:24.150Z,100850.53
2023-06-19T00:45:50.899Z,100846.94
2023-06-19T00:48:18.099Z,100868.09
2023-06-19T00:50:45.140Z,100860.16
2023-06-19T00:53:11.778Z,100860.16
2023-06-19T00:55:38.702Z,100864.94
2023-06-19T00:58:05.243Z,100860.94
2023-06-19T01:00:31.829Z,100861.75
2023-06-19T01:02:59.829Z,100868.13
2023-06-19T01:05:28.824Z,100867.34
2023-06-19T01:08:09.939Z,100874.09
2023-06-19T01:10:41.575Z,100875.69
2023-06-19T01:13:13.129Z,100878.88
2023-06-19T01:15:42.857Z,100876.13
2023-06-19T01:18:12.771Z,100880.09
2023-06-19T01:20:39.876Z,100887.69
2023-06-19T01:23:09.305Z,100894.44
2023-06-19T01:25:36.422Z,100887.66
2023-06-19T01:28:10.772Z,100896.38
2023-06-19T01:30:39.829Z,100884.81
2023-06-19T01:33:16.097Z,100896.00
2023-06-19T01:35:45.844Z,100892.81
2023-06-19T01:38:13.948Z,100907.13
2023-06-19T01:40:41.801Z,100900.75
2023-06-19T01:43:09.572Z,100910.69
2023-06-19T01:45:36.372Z,100901.13
2023-06-19T01:48:03.546Z,100911.84
2023-06-19T01:50:30.181Z,100906.69
2023-06-19T01:52:56.992Z,100916.63
2023-06-19T01:55:23.752Z,100906.66
2023-06-19T01:57:50.242Z,100917.41
2023-06-19T02:00:17.164Z,100902.25
2023-06-19T02:02:43.959Z,100911.41
2023-06-19T02:05:10.940Z,100916.59
2023-06-19T02:07:38.352Z,100918.56
2023-06-19T02:10:06.449Z,100912.59
2023-06-19T02:12:33.145Z,100922.16
2023-06-19T02:14:59.709Z,100913.38
2023-06-19T02:17:26.329Z,100913.38
2023-06-19T02:19:52.841Z,100914.97
2023-06-19T02:22:19.611Z,100920.56
2023-06-19T02:24:46.852Z,100922.53
2023-06-19T02:27:13.578Z,100930.09
2023-06-19T02:29:40.202Z,100925.28
2023-06-19T02:32:06.954Z,100919.72
2023-06-19T02:34:34.658Z,100923.69
2023-06-19T02:37:01.235Z,100930.47
2023-06-19T02:39:28.400Z,100932.44
2023-06-19T02:41:54.995Z,100934.81
2023-06-19T02:44:21.865Z,100925.69
2023-06-19T02:46:49.467Z,100927.25
2023-06-19T02:49:16.114Z,100934.03
2023-06-19T02:51:43.251Z,100938.00
2023-06-19T02:54:09.820Z,100946.34
2023-06-19T02:56:36.411Z,100949.94
2023-06-19T02:59:02.974Z,100947.53
2023-06-19T03:01:29.802Z,100954.66
2023-06-19T03:03:56.978Z,100950.72
2023-06-19T03:06:23.532Z,100956.69
2023-06-19T03:08:50.029Z,100957.50
2023-06-19T03:11:16.546Z,100948.72
2023-06-19T03:13:52.074Z,100954.66
2023-06-19T03:16:20.937Z,100943.50
2023-06-19T03:18:51.922Z,100944.69
2023-06-19T03:21:21.034Z,100952.25
2023-06-19T03:23:49.032Z,100938.75
2023-06-19T03:26:16.215Z,100954.28
2023-06-19T03:28:43.173Z,100948.28
2023-06-19T03:31:10.309Z,100964.59
2023-06-19T03:33:36.962Z,100967.38
2023-06-19T03:36:05.249Z,100961.81
2023-06-19T03:38:51.239Z,100969.72
2023-06-19T03:41:21.238Z,100970.91
2023-06-19T03:43:47.987Z,100971.28
2023-06-19T03:46:15.057Z,100980.84
2023-06-19T03:48:41.647Z,100986.41
2023-06-19T03:51:08.191Z,100988.38
2023-06-19T03:53:35.179Z,100999.88
2023-06-19T03:56:01.780Z,100997.50
2023-06-19T03:58:28.462Z,101006.63
2023-06-19T04:00:54.988Z,101002.22
2023-06-19T04:03:21.956Z,101005.00
2023-06-19T04:05:48.822Z,101004.19
2023-06-19T04:08:16.913Z,101009.38
2023-06-19T04:10:44.071Z,101009.78
2023-06-19T04:13:10.552Z,101012.56
2023-06-19T04:15:39.653Z,101009.78
2023-06-19T04:18:06.264Z,101029.25
2023-06-19T04:20:33.026Z,101014.09
2023-06-19T04:22:59.510Z,101030.41
2023-06-19T04:25:26.030Z,101030.00
2023-06-19T04:27:52.585Z,101020.44
2023-06-19T04:30:22.110Z,101033.94
2023-06-19T04:32:48.819Z,101033.19
2023-06-19T04:35:15.422Z,101042.72
2023-06-19T04:37:41.935Z,101042.31
2023-06-19T04:40:09.118Z,101049.06
2023-06-19T04:42:35.620Z,101047.44
2023-06-19T04:45:02.169Z,101056.22
2023-06-19T04:47:39.746Z,101049.81
2023-06-19T04:50:16.656Z,101048.97
2023-06-19T04:52:43.441Z,101066.06
2023-06-19T04:55:11.203Z,101069.66
2023-06-19T04:57:38.452Z,101064.09
2023-06-19T05:00:11.274Z,101069.66
2023-06-19T05:02:38.563Z,101070.06
2023-06-19T05:05:05.716Z,101076.44
2023-06-19T05:07:32.584Z,101074.53
2023-06-19T05:10:00.090Z,101066.59
2023-06-19T05:12:26.685Z,101077.72
2023-06-19T05:14:53.254Z,101084.06
2023-06-19T05:17:19.898Z,101078.53
2023-06-19T05:19:46.506Z,101083.38
2023-06-19T05:22:13.119Z,101084.97
2023-06-19T05:24:40.012Z,101092.09
2023-06-19T05:27:06.986Z,101094.50
2023-06-19T05:29:33.600Z,101092.47
2023-06-19T05:32:00.235Z,101084.88
2023-06-19T05:34:26.727Z,101095.56
2023-06-19T05:36:53.276Z,101103.13
2023-06-19T05:39:21.167Z,101103.13
2023-06-19T05:41:47.745Z,101100.72
2023-06-19T05:44:18.011Z,101100.34
2023-06-19T05:46:44.867Z,101111.94
2023-06-19T05:49:11.585Z,101121.84
2023-06-19T05:51:38.575Z,101115.09
2023-06-19T05:54:05.385Z,101119.06
2023-06-19T05:56:34.293Z,101113.50
2023-06-19T05:59:02.784Z,101109.94
2023-06-19T06:01:30.753Z,101117.50
2023-06-19T06:03:58.286Z,101125.47
2023-06-19T06:06:26.640Z,101124.22
2023-06-19T06:08:53.514Z,101130.19
2023-06-19T06:11:20.089Z,101136.19
2023-06-19T06:13:46.695Z,101131.81
2023-06-19T06:16:13.259Z,101135.81
2023-06-19T06:18:39.827Z,101142.19
2023-06-19T06:21:06.475Z,101155.00
2023-06-19T06:23:33.022Z,101152.66
2023-06-19T06:26:03.512Z,101151.53
2023-06-19T06:28:30.482Z,101155.66
2023-06-19T06:30:57.037Z,101160.00
2023-06-19T06:33:24.351Z,101169.59
2023-06-19T06:35:52.533Z,101164.53
2023-06-19T06:38:19.258Z,101167.22
2023-06-19T06:40:45.802Z,101178.41
2023-06-19T06:43:12.307Z,101165.94
2023-06-19T06:45:39.333Z,101177.03
2023-06-19T06:48:08.055Z,101179.69
2023-06-19T06:50:35.448Z,101179.28
2023-06-19T06:53:02.252Z,101187.53
2023-06-19T06:55:29.077Z,101190.63
2023-06-19T06:57:55.550Z,101187.84
2023-06-19T07:00:22.627Z,101202.56
2023-06-19T07:02:51.401Z,101204.56
2023-06-19T07:05:18.301Z,101204.19
2023-06-19T07:07:44.787Z,101209.38
2023-06-19T07:10:11.798Z,101217.66
2023-06-19T07:12:51.029Z,101209.38
2023-06-19T07:15:54.723Z,101226.22
2023-06-19T07:18:21.309Z,101237.44
2023-06-19T07:20:47.868Z,101233.06
2023-06-19T07:23:15.259Z,101235.97
2023-06-19T07:25:41.725Z,101231.19
2023-06-19T07:28:08.234Z,101245.03
2023-06-19T07:30:34.720Z,101242.63
2023-06-19T07:33:01.412Z,101249.00
2023-06-19T07:35:27.981Z,101245.81
2023-06-19T07:37:54.462Z,101253.34
2023-06-19T07:40:21.013Z,101263.25
2023-06-19T07:42:47.573Z,101258.53
2023-06-19T07:45:14.940Z,101253.59
2023-06-19T07:47:41.522Z,101260.09
2023-06-19T07:50:09.770Z,101263.34
2023-06-19T07:52:36.439Z,101264.53
2023-06-19T07:55:03.458Z,101270.56
2023-06-19T07:57:30.478Z,101271.06
2023-06-19T07:59:57.221Z,101277.44
2023-06-19T08:02:24.938Z,101282.25
2023-06-19T08:04:51.998Z,101275.88
2023-06-19T08:07:18.667Z,101283.47
2023-06-19T08:09:47.029Z,101283.47
2023-06-19T08:12:15.378Z,101281.09
2023-06-19T08:14:41.879Z,101287.91
2023-06-19T08:17:08.598Z,101285.50
2023-06-19T08:19:35.169Z,101285.13
2023-06-19T08:22:01.714Z,101289.94
2023-06-19T08:24:28.336Z,101292.75
2023-06-19T08:26:55.498Z,101284.38
2023-06-19T08:29:22.124Z,101294.34
2023-06-19T08:31:48.601Z,101303.19
2023-06-19T08:34:15.211Z,101305.94
2023-06-19T08:36:42.981Z,101311.94
2023-06-19T08:39:09.628Z,101313.56
2023-06-19T08:41:42.238Z,101319.94
2023-06-19T08:44:09.285Z,101322.38
2023-06-19T09:11:10.765Z,101333.94
2023-06-19T09:13:38.678Z,101336.38
2023-06-19T09:16:07.834Z,101338.38
2023-06-19T09:18:46.343Z,101341.56
2023-06-19T09:21:17.170Z,101348.75
2023-06-19T09:23:43.711Z,101346.34
2023-06-19T09:26:10.952Z,101350.72
2023-06-19T09:28:42.774Z,101355.97
2023-06-19T09:31:09.373Z,101350.38
2023-06-19T09:33:39.455Z,101365.53
2023-06-19T09:36:07.320Z,101361.56
2023-06-19T09:38:39.510Z,101369.16
2023-06-19T09:41:09.025Z,101378.75
2023-06-19T09:43:42.216Z,101370.31
2023-06-19T09:46:09.889Z,101375.47
2023-06-19T09:48:44.243Z,101379.81
2023-06-19T09:51:17.984Z,101385.00
2023-06-19T09:53:51.949Z,101382.53
2023-06-19T09:56:25.538Z,101391.72
2023-06-19T09:58:56.730Z,101396.06
2023-06-19T10:01:24.651Z,101395.47
2023-06-19T10:03:52.026Z,101400.97
2023-06-19T10:06:23.500Z,101395.13
2023-06-19T10:08:52.167Z,101399.09
2023-06-19T10:11:18.937Z,101395.75
2023-06-19T10:13:47.593Z,101391.94
2023-06-19T10:16:27.278Z,101383.56
2023-06-19T10:18:59.863Z,101387.44
